Time,TemperatureF,DewpointF,PressureIn,WindDirection,WindDirectionDegrees,WindSpeedMPH,WindSpeedGustMPH,Humidity,HourlyPrecipIn,Conditions,Clouds,dailyrainin,SoftwareType,DateUTC
2013-02-09 00:00:00,9.0,4.0,-100.00,ENE,65,0.0,1.0,77,-99.99,,,-99.99,,2013-02-09 06:00:00,
2013-02-09 00:22:00,9.0,4.0,-100.00,ENE,65,0.0,1.0,77,-99.99,,,-99.99,,2013-02-09 06:22:00,
2013-02-09 00:32:00,9.0,4.0,-100.00,ENE,65,0.0,1.0,77,-99.99,,,-99.99,,2013-02-09 06:32:00,
2013-02-09 00:42:00,9.0,4.0,-100.00,ENE,65,0.0,1.0,77,-99.99,,,-99.99,,2013-02-09 06:42:00,
2013-02-09 00:52:00,9.0,4.0,-100.00,ENE,65,0.0,1.0,77,-99.99,,,-99.99,,2013-02-09 06:52:00,
2013-02-09 01:00:00,10.0,4.0,-100.00,ENE,60,1.0,2.0,77,-99.99,,,-99.99,,2013-02-09 07:00:00,
2013-02-09 01:22:00,10.0,4.0,-100.00,ENE,60,1.0,2.0,77,-99.99,,,-99.99,,2013-02-09 07:22:00,
2013-02-09 01:32:00,10.0,4.0,-100.00,ENE,60,1.0,2.0,77,-99.99,,,-99.99,,2013-02-09 07:32:00,
2013-02-09 01:42:00,10.0,4.0,-100.00,ENE,60,1.0,2.0,77,-99.99,,,-99.99,,2013-02-09 07:42:00,
2013-02-09 01:52:00,10.0,4.0,-100.00,ENE,60,1.0,2.0,77,-99.99,,,-99.99,,2013-02-09 07:52:00,
2013-02-09 02:00:00,13.0,7.0,-100.00,NE,50,2.0,3.0,74,-99.99,,,-99.99,,2013-02-09 08:00:00,
2013-02-09 02:21:00,13.0,7.0,-100.00,NE,50,2.0,3.0,74,-99.99,,,-99.99,,2013-02-09 08:21:00,
2013-02-09 02:32:00,13.0,7.0,-100.00,NE,50,2.0,3.0,74,-99.99,,,-99.99,,2013-02-09 08:32:00,
2013-02-09 02:42:00,13.0,7.0,-100.00,NE,50,2.0,3.0,74,-99.99,,,-99.99,,2013-02-09 08:42:00,
2013-02-09 02:52:00,13.0,7.0,-100.00,NE,50,2.0,3.0,74,-99.99,,,-99.99,,2013-02-09 08:52:00,
2013-02-09 03:22:00,16.0,5.0,-100.00,East,80,0.0,3.0,62,-99.99,,,-99.99,,2013-02-09 09:22:00,
2013-02-09 03:32:00,16.0,5.0,-100.00,East,80,0.0,3.0,62,-99.99,,,-99.99,,2013-02-09 09:32:00,
2013-02-09 04:21:00,17.0,5.0,-100.00,ENE,70,2.0,2.0,61,-99.99,,,-99.99,,2013-02-09 10:21:00,
2013-02-09 05:22:00,17.0,6.0,-100.00,ENE,60,1.0,2.0,62,-99.99,,,-99.99,,2013-02-09 11:22:00,
2013-02-09 06:22:00,18.0,7.0,-100.00,ENE,75,1.0,4.0,61,-99.99,,,-99.99,,2013-02-09 12:22:00,
2013-02-09 07:22:00,21.0,9.0,-100.00,East,80,3.0,10.0,61,-99.99,,,-99.99,,2013-02-09 13:22:00,
2013-02-09 08:22:00,21.0,9.0,-100.00,East,80,6.0,11.0,61,-99.99,,,-99.99,,2013-02-09 14:22:00,
2013-02-09 09:22:00,23.0,11.0,-100.00,East,85,7.0,14.0,62,-99.99,,,-99.99,,2013-02-09 15:22:00,
2013-02-09 10:22:00,24.0,12.0,-100.00,East,80,6.0,19.0,61,-99.99,,,-99.99,,2013-02-09 16:22:00,
2013-02-09 11:22:00,26.0,14.0,-100.00,East,80,6.0,16.0,61,-99.99,,,-99.99,,2013-02-09 17:22:00,
2013-02-09 11:32:00,26.0,14.0,-100.00,East,80,6.0,16.0,61,-99.99,,,-99.99,,2013-02-09 17:32:00,
2013-02-09 12:00:00,28.0,22.0,-100.00,East,80,6.0,16.0,78,-99.99,,,-99.99,,2013-02-09 18:00:00,
2013-02-09 12:23:00,28.0,22.0,-100.00,East,80,6.0,16.0,78,-99.99,,,-99.99,,2013-02-09 18:23:00,
2013-02-09 12:32:00,28.0,22.0,-100.00,East,80,6.0,16.0,78,-99.99,,,-99.99,,2013-02-09 18:32:00,
2013-02-09 12:42:00,28.0,22.0,-100.00,East,80,6.0,16.0,78,-99.99,,,-99.99,,2013-02-09 18:42:00,
2013-02-09 12:52:00,28.0,22.0,-100.00,East,80,6.0,16.0,78,-99.99,,,-99.99,,2013-02-09 18:52:00,
2013-02-09 13:00:00,29.0,23.0,-100.00,East,85,7.0,15.0,78,-99.99,,,-99.99,,2013-02-09 19:00:00,
2013-02-09 13:22:00,29.0,23.0,-100.00,East,85,7.0,15.0,78,-99.99,,,-99.99,,2013-02-09 19:22:00,
2013-02-09 13:32:00,29.0,23.0,-100.00,East,85,7.0,15.0,78,-99.99,,,-99.99,,2013-02-09 19:32:00,
2013-02-09 13:42:00,29.0,23.0,-100.00,East,85,7.0,15.0,78,-99.99,,,-99.99,,2013-02-09 19:42:00,
2013-02-09 13:52:00,29.0,23.0,-100.00,East,85,7.0,15.0,78,-99.99,,,-99.99,,2013-02-09 19:52:00,
2013-02-09 14:00:00,29.0,23.0,-100.00,East,85,9.0,14.0,78,-99.99,,,-99.99,,2013-02-09 20:00:00,
2013-02-09 14:22:00,29.0,23.0,-100.00,East,85,9.0,14.0,78,-99.99,,,-99.99,,2013-02-09 20:22:00,
2013-02-09 14:32:00,29.0,23.0,-100.00,East,85,9.0,14.0,78,-99.99,,,-99.99,,2013-02-09 20:32:00,
2013-02-09 14:42:00,29.0,23.0,-100.00,East,85,9.0,14.0,78,-99.99,,,-99.99,,2013-02-09 20:42:00,
2013-02-09 14:52:00,29.0,23.0,-100.00,East,85,9.0,14.0,78,-99.99,,,-99.99,,2013-02-09 20:52:00,
2013-02-09 15:00:00,30.0,23.0,-100.00,East,85,9.0,15.0,77,-99.99,,,-99.99,,2013-02-09 21:00:00,
2013-02-09 15:22:00,30.0,23.0,-100.00,East,85,9.0,15.0,77,-99.99,,,-99.99,,2013-02-09 21:22:00,
2013-02-09 15:32:00,30.0,23.0,-100.00,East,85,9.0,15.0,77,-99.99,,,-99.99,,2013-02-09 21:32:00,
2013-02-09 15:42:00,30.0,23.0,-100.00,East,85,9.0,15.0,77,-99.99,,,-99.99,,2013-02-09 21:42:00,
2013-02-09 15:52:00,30.0,23.0,-100.00,East,85,9.0,15.0,77,-99.99,,,-99.99,,2013-02-09 21:52:00,
2013-02-09 16:00:00,30.0,24.0,-100.00,East,80,6.0,15.0,77,-99.99,,,-99.99,,2013-02-09 22:00:00,
2013-02-09 16:22:00,30.0,24.0,-100.00,East,80,6.0,15.0,77,-99.99,,,-99.99,,2013-02-09 22:22:00,
2013-02-09 16:32:00,30.0,24.0,-100.00,East,80,6.0,15.0,77,-99.99,,,-99.99,,2013-02-09 22:32:00,
2013-02-09 16:42:00,30.0,24.0,-100.00,East,80,6.0,15.0,77,-99.99,,,-99.99,,2013-02-09 22:42:00,
2013-02-09 16:52:00,30.0,24.0,-100.00,East,80,6.0,15.0,77,-99.99,,,-99.99,,2013-02-09 22:52:00,
2013-02-09 17:00:00,29.0,23.0,-100.00,ENE,70,7.0,14.0,77,-99.99,,,-99.99,,2013-02-09 23:00:00,
2013-02-09 17:22:00,29.0,23.0,-100.00,ENE,70,7.0,14.0,77,-99.99,,,-99.99,,2013-02-09 23:22:00,
2013-02-09 17:32:00,29.0,23.0,-100.00,ENE,70,7.0,14.0,77,-99.99,,,-99.99,,2013-02-09 23:32:00,
2013-02-09 17:42:00,29.0,23.0,-100.00,ENE,70,7.0,14.0,77,-99.99,,,-99.99,,2013-02-09 23:42:00,
2013-02-09 17:52:00,29.0,23.0,-100.00,ENE,70,7.0,14.0,77,-99.99,,,-99.99,,2013-02-09 23:52:00,
2013-02-09 18:00:00,29.0,22.0,-100.00,ENE,75,5.0,17.0,77,-99.99,,,-99.99,,2013-02-10 00:00:00,
2013-02-09 18:22:00,29.0,22.0,-100.00,ENE,75,5.0,17.0,77,-99.99,,,-99.99,,2013-02-10 00:22:00,
2013-02-09 18:32:00,29.0,22.0,-100.00,ENE,75,5.0,17.0,77,-99.99,,,-99.99,,2013-02-10 00:32:00,
2013-02-09 18:42:00,29.0,22.0,-100.00,ENE,75,5.0,17.0,77,-99.99,,,-99.99,,2013-02-10 00:42:00,
2013-02-09 18:52:00,29.0,22.0,-100.00,ENE,75,5.0,17.0,77,-99.99,,,-99.99,,2013-02-10 00:52:00,
2013-02-09 19:00:00,29.0,22.0,-100.00,ENE,70,7.0,12.0,77,-99.99,,,-99.99,,2013-02-10 01:00:00,
2013-02-09 19:22:00,29.0,22.0,-100.00,ENE,70,7.0,12.0,77,-99.99,,,-99.99,,2013-02-10 01:22:00,
2013-02-09 19:32:00,29.0,22.0,-100.00,ENE,70,7.0,12.0,77,-99.99,,,-99.99,,2013-02-10 01:32:00,
2013-02-09 19:42:00,29.0,22.0,-100.00,ENE,70,7.0,12.0,77,-99.99,,,-99.99,,2013-02-10 01:42:00,
2013-02-09 19:52:00,29.0,22.0,-100.00,ENE,70,7.0,12.0,77,-99.99,,,-99.99,,2013-02-10 01:52:00,
2013-02-09 21:00:00,29.0,22.0,-100.00,ENE,75,5.0,12.0,76,-99.99,,,-99.99,,2013-02-10 03:00:00,
2013-02-09 21:22:00,29.0,22.0,-100.00,ENE,75,5.0,12.0,76,-99.99,,,-99.99,,2013-02-10 03:22:00,
2013-02-09 21:32:00,29.0,22.0,-100.00,ENE,75,5.0,12.0,76,-99.99,,,-99.99,,2013-02-10 03:32:00,
2013-02-09 21:42:00,29.0,22.0,-100.00,ENE,75,5.0,12.0,76,-99.99,,,-99.99,,2013-02-10 03:42:00,
2013-02-09 21:52:00,29.0,22.0,-100.00,ENE,75,5.0,12.0,76,-99.99,,,-99.99,,2013-02-10 03:52:00,
2013-02-09 22:00:00,27.0,20.0,-100.00,ENE,65,2.0,6.0,76,-99.99,,,-99.99,,2013-02-10 04:00:00,
2013-02-09 22:22:00,27.0,20.0,-100.00,ENE,65,2.0,6.0,76,-99.99,,,-99.99,,2013-02-10 04:22:00,
2013-02-09 22:32:00,27.0,20.0,-100.00,ENE,65,2.0,6.0,76,-99.99,,,-99.99,,2013-02-10 04:32:00,
2013-02-09 22:42:00,27.0,20.0,-100.00,ENE,65,2.0,6.0,76,-99.99,,,-99.99,,2013-02-10 04:42:00,
2013-02-09 22:52:00,27.0,20.0,-100.00,ENE,65,2.0,6.0,76,-99.99,,,-99.99,,2013-02-10 04:52:00,
2013-02-09 23:23:00,26.0,15.0,-100.00,NE,40,3.0,5.0,62,-99.99,,,-99.99,,2013-02-10 05:23:00,